Time;durP1;ratioP1;P1;durP2;ratioP2;P2;SDS_P1;SDS_P2;PMS_P1;PMS_P2;Temp;Humidity;BMP_temperature;BMP_pressure;BME280_temperature;BME280_humidity;BME280_pressure;Samples;Min_cycle;Max_cycle;Signal;HPM_P1;HPM_P2
2022/07/15 04:14:32;;;;;;;7.70;4.50;;;;;;;21.64;50.48;101092.94;5065254;27;20471;-79
2022/07/15 04:16:57;;;;;;;15.13;8.82;;;;;;;21.54;50.92;101094.72;5044202;28;20525;-80
2022/07/15 04:19:23;;;;;;;8.40;5.13;;;;;;;21.47;51.43;101094.41;5055507;28;20482;-80
2022/07/15 04:21:48;;;;;;;12.63;5.20;;;;;;;21.67;50.69;101094.44;5058783;28;20041;-81
2022/07/15 04:24:14;;;;;;;16.45;8.75;;;;;;;21.63;51.12;101098.31;5062107;28;20029;-80
2022/07/15 04:26:39;;;;;;;19.60;14.63;;;;;;;21.55;50.93;101077.13;5066466;28;20066;-81
2022/07/15 04:29:05;;;;;;;7.97;5.38;;;;;;;21.65;50.47;101085.88;5049604;28;20067;-81
2022/07/15 04:31:30;;;;;;;11.75;7.13;;;;;;;21.96;49.63;101092.69;5051263;28;20029;-96
2022/07/15 04:33:56;;;;;;;9.50;5.55;;;;;;;22.36;48.71;101075.94;5032364;28;20029;-92
2022/07/15 04:36:21;;;;;;;8.70;5.05;;;;;;;22.47;48.85;101085.50;5028010;28;20500;-89
2022/07/15 04:38:47;;;;;;;10.82;5.28;;;;;;;22.65;48.91;101098.81;5045868;28;20500;-88
2022/07/15 04:41:12;;;;;;;11.48;5.78;;;;;;;22.67;48.22;101089.78;5046103;28;20033;-85
2022/07/15 04:43:38;;;;;;;11.48;5.22;;;;;;;22.87;48.28;101101.13;5046227;28;20101;-95
2022/07/15 04:46:04;;;;;;;7.63;5.35;;;;;;;22.93;48.18;101103.22;5035564;28;20409;-90
2022/07/15 04:51:13;;;;;;;8.43;4.75;;;;;;;22.89;48.47;101102.66;5045623;28;20044;-82
2022/07/15 04:53:39;;;;;;;9.55;5.10;;;;;;;22.88;48.89;101089.59;5045747;28;20033;-84
2022/07/15 04:56:05;;;;;;;10.43;5.13;;;;;;;22.87;48.78;101087.94;5061107;28;20421;-84
2022/07/15 04:58:30;;;;;;;9.52;4.60;;;;;;;22.89;48.65;101097.38;5044599;28;20036;-89
2022/07/15 05:00:56;;;;;;;11.38;5.05;;;;;;;23.43;48.15;101092.31;5024060;28;20053;-90
2022/07/15 05:03:21;;;;;;;10.55;5.75;;;;;;;23.71;47.68;101091.34;5028477;28;20037;-90
2022/07/15 05:05:47;;;;;;;7.22;5.60;;;;;;;23.82;47.28;101102.69;5028181;28;20044;-85
2022/07/15 05:08:12;;;;;;;9.23;6.10;;;;;;;23.70;46.73;101100.25;5047044;28;20033;-95
2022/07/15 05:10:38;;;;;;;13.65;6.43;;;;;;;23.52;48.15;101094.06;5030183;28;20040;-90
2022/07/15 05:13:04;;;;;;;9.90;5.72;;;;;;;23.43;48.32;101079.13;5063720;28;20076;-94
2022/07/15 05:15:29;;;;;;;11.70;5.50;;;;;;;23.37;50.90;101084.97;5040781;28;20061;-87
2022/07/15 05:17:55;;;;;;;10.85;5.47;;;;;;;23.19;51.70;101101.56;5043200;28;20083;-88
2022/07/15 05:20:22;;;;;;;9.02;5.47;;;;;;;23.11;51.97;101109.41;5044744;28;20158;-93
2022/07/15 05:22:48;;;;;;;11.13;5.80;;;;;;;23.13;52.85;101106.63;5012236;28;20111;-84
2022/07/15 05:25:13;;;;;;;15.63;6.22;;;;;;;23.15;52.90;101087.03;5034622;28;20098;-84
2022/07/15 05:27:39;;;;;;;13.23;5.38;;;;;;;23.40;52.22;101097.88;5012258;28;20128;-92
2022/07/15 05:30:05;;;;;;;10.55;5.72;;;;;;;23.73;51.65;101107.88;5028626;28;20048;-90
2022/07/15 05:32:30;;;;;;;11.05;5.63;;;;;;;23.89;51.39;101111.66;5030179;28;20059;-83
2022/07/15 05:34:56;;;;;;;12.70;5.93;;;;;;;23.84;51.08;101108.66;5029532;28;20033;-89
2022/07/15 05:37:21;;;;;;;8.95;5.22;;;;;;;24.01;51.26;101113.13;5046960;28;20025;-92
2022/07/15 05:39:57;;;;;;;11.35;5.80;;;;;;;24.12;50.39;101104.97;5016673;28;20026;-90
2022/07/15 05:42:23;;;;;;;10.65;5.70;;;;;;;24.48;49.73;101123.47;5015640;28;20025;-83
2022/07/15 05:44:49;;;;;;;14.23;7.20;;;;;;;24.61;48.87;101110.69;5046814;28;20035;-88
2022/07/15 05:47:15;;;;;;;13.30;5.97;;;;;;;24.73;49.13;101096.22;5015575;28;20037;-84
2022/07/15 05:49:41;;;;;;;20.90;14.13;;;;;;;24.92;48.48;101102.28;5030914;28;20501;-83
2022/07/15 05:52:07;;;;;;;15.57;11.02;;;;;;;24.82;45.67;101121.75;5031543;28;20030;-84
2022/07/15 05:54:32;;;;;;;16.75;8.63;;;;;;;24.55;44.23;101090.97;5032900;28;20025;-88
2022/07/15 05:56:58;;;;;;;11.45;7.60;;;;;;;24.41;45.35;101104.75;5032597;28;20445;-94
2022/07/15 05:59:24;;;;;;;10.85;6.95;;;;;;;24.47;44.98;101119.16;5008118;28;20115;-86
2022/07/15 06:01:49;;;;;;;12.77;7.40;;;;;;;24.69;44.10;101126.63;5018429;28;20064;-86
2022/07/15 06:04:15;;;;;;;14.23;7.07;;;;;;;24.64;44.93;101126.25;5016640;28;20033;-90
2022/07/15 06:06:40;;;;;;;10.27;7.00;;;;;;;24.75;44.34;101128.63;4999644;28;20045;-88
2022/07/15 06:09:06;;;;;;;9.75;6.82;;;;;;;24.81;44.22;101121.91;5016743;28;20041;-90
2022/07/15 06:11:31;;;;;;;12.70;8.32;;;;;;;25.03;45.04;101132.00;5009224;28;20032;-88
2022/07/15 06:13:57;;;;;;;13.18;7.95;;;;;;;25.26;44.55;101126.97;5019435;28;20136;-89
2022/07/15 06:16:22;;;;;;;13.98;6.88;;;;;;;25.41;43.95;101129.88;5020006;28;20033;-83
2022/07/15 06:18:50;;;;;;;5.53;4.50;;;;;;;25.32;42.85;101109.63;5015967;28;20074;-83
2022/07/15 06:21:16;;;;;;;7.70;5.90;;;;;;;25.49;43.20;101113.19;5017344;28;20203;-91
2022/07/15 06:23:41;;;;;;;7.50;5.53;;;;;;;25.58;43.04;101096.31;5005529;28;20632;-85
2022/07/15 06:26:07;;;;;;;8.95;4.90;;;;;;;25.69;42.17;101098.66;5017697;28;20040;-83
2022/07/15 06:28:33;;;;;;;6.72;5.00;;;;;;;25.80;41.31;101102.88;5017144;28;20029;-85
2022/07/15 06:30:58;;;;;;;9.10;5.00;;;;;;;25.77;42.38;101101.38;5007501;28;20468;-88
2022/07/15 06:33:24;;;;;;;13.68;7.80;;;;;;;25.74;42.34;101110.47;5019692;28;20506;-87
2022/07/15 06:35:49;;;;;;;5.60;4.60;;;;;;;25.76;42.10;101112.94;5017499;28;20083;-84
2022/07/15 06:38:15;;;;;;;8.05;5.00;;;;;;;25.86;42.28;101107.50;5018742;28;20028;-84
2022/07/15 06:40:41;;;;;;;7.95;5.40;;;;;;;25.83;43.28;101095.41;5017744;28;20079;-89
2022/07/15 06:43:06;;;;;;;8.68;5.25;;;;;;;25.96;42.97;101103.75;5019965;28;20418;-86
2022/07/15 06:45:32;;;;;;;12.85;9.18;;;;;;;26.06;42.86;101118.66;5034173;28;20474;-86
2022/07/15 06:47:57;;;;;;;13.85;7.28;;;;;;;25.96;42.92;101103.75;5031099;28;20026;-88
2022/07/15 06:50:24;;;;;;;9.40;6.00;;;;;;;25.96;43.29;101116.16;5029673;28;20119;-93
2022/07/15 06:52:50;;;;;;;7.32;4.93;;;;;;;26.16;42.35;101114.03;5023545;28;20064;-88
2022/07/15 06:55:15;;;;;;;6.85;4.60;;;;;;;26.26;41.96;101110.22;5046206;28;20021;-88
2022/07/15 06:57:41;;;;;;;10.57;5.38;;;;;;;26.40;42.37;101106.09;5015538;28;20080;-87
2022/07/15 07:00:08;;;;;;;7.05;5.10;;;;;;;26.32;41.94;101108.72;5018234;28;20033;-86
2022/07/15 07:02:34;;;;;;;8.05;4.65;;;;;;;26.48;40.71;101116.72;5005081;28;20037;-86
2022/07/15 07:05:00;;;;;;;7.50;4.72;;;;;;;26.58;40.09;101113.88;5014539;28;20380;-86
2022/07/15 07:07:25;;;;;;;7.70;4.50;;;;;;;26.59;39.62;101107.56;5016607;28;20502;-85
2022/07/15 07:09:51;;;;;;;8.07;5.30;;;;;;;26.77;38.75;101112.69;5032209;28;21015;-85
2022/07/15 07:12:17;;;;;;;7.63;4.88;;;;;;;26.84;38.85;101119.81;5015653;28;20037;-83
2022/07/15 07:14:43;;;;;;;7.75;4.40;;;;;;;26.91;37.80;101112.00;5017724;28;20094;-82
2022/07/15 07:17:08;;;;;;;6.47;4.72;;;;;;;27.10;38.74;101119.59;5000824;28;20057;-86
2022/07/15 07:19:34;;;;;;;11.32;4.28;;;;;;;27.27;38.32;101115.06;5030151;28;20450;-82
2022/07/15 07:21:59;;;;;;;5.80;4.38;;;;;;;27.40;38.22;101107.38;5013846;28;20057;-86
2022/07/15 07:24:25;;;;;;;5.32;4.40;;;;;;;27.56;38.20;101118.94;5031985;28;20159;-93
2022/07/15 07:26:50;;;;;;;10.48;4.63;;;;;;;27.62;37.35;101113.72;5002546;28;20030;-85
2022/07/15 07:29:22;;;;;;;6.30;4.55;;;;;;;27.62;36.89;101092.47;5003576;28;20083;-86
2022/07/15 07:31:48;;;;;;;6.57;4.35;;;;;;;27.84;36.87;101128.13;5012186;28;20513;-88
2022/07/15 07:34:14;;;;;;;7.60;4.10;;;;;;;27.94;36.22;101114.59;5000086;28;20072;-84
2022/07/15 07:36:40;;;;;;;4.75;4.10;;;;;;;27.99;35.56;101109.56;4997411;28;20563;-82
2022/07/15 07:39:05;;;;;;;6.68;4.50;;;;;;;28.17;37.33;101112.75;5013836;28;21760;-85
2022/07/15 07:41:31;;;;;;;5.57;4.35;;;;;;;28.40;37.00;101117.25;5005003;28;20082;-94
2022/07/15 07:43:56;;;;;;;7.68;4.00;;;;;;;28.28;34.88;101083.09;4998957;28;20029;-84
2022/07/15 07:46:22;;;;;;;5.32;4.55;;;;;;;28.53;36.88;101107.66;5015671;28;20034;-84
2022/07/15 07:48:47;;;;;;;8.55;4.32;;;;;;;28.73;36.59;101097.31;5012539;28;20032;-85
2022/07/15 07:51:13;;;;;;;8.50;4.45;;;;;;;29.04;35.38;101109.66;4997763;28;20465;-83
2022/07/15 07:53:38;;;;;;;7.63;5.30;;;;;;;29.15;35.02;101101.22;5011720;28;20128;-82
2022/07/15 07:56:04;;;;;;;6.45;4.97;;;;;;;29.28;35.12;101117.34;5012490;28;20027;-83
2022/07/15 07:58:29;;;;;;;6.15;4.30;;;;;;;29.29;33.13;101116.34;5029687;28;20034;-82
2022/07/15 08:00:55;;;;;;;9.20;4.75;;;;;;;29.38;34.46;101117.91;5017415;28;20041;-84
2022/07/15 08:03:21;;;;;;;6.45;5.20;;;;;;;29.55;35.92;101117.72;4997442;28;20048;-82
2022/07/15 08:05:46;;;;;;;8.05;5.22;;;;;;;29.53;36.60;101099.25;5012224;28;20608;-85
2022/07/15 08:08:16;;;;;;;9.25;5.28;;;;;;;29.80;36.44;101103.03;5011086;28;20451;-84
2022/07/15 08:10:48;;;;;;;5.88;4.50;;;;;;;29.95;35.04;101097.63;5011401;28;20495;-87
2022/07/15 08:13:15;;;;;;;9.27;4.50;;;;;;;30.02;34.47;101097.72;5012783;28;20044;-88
2022/07/15 08:15:40;;;;;;;8.68;5.03;;;;;;;30.05;35.37;101092.00;5017351;28;20478;-84
2022/07/15 08:18:06;;;;;;;11.38;5.03;;;;;;;30.25;33.58;101103.69;5015581;28;20585;-85
2022/07/15 08:20:32;;;;;;;9.95;5.30;;;;;;;30.42;34.49;101094.41;5012668;28;20410;-82
2022/07/15 08:22:58;;;;;;;5.50;4.30;;;;;;;30.57;33.26;101091.63;5010840;28;20037;-82
2022/07/15 08:25:31;;;;;;;10.98;7.22;;;;;;;30.56;33.54;101090.78;5005549;28;20037;-88
2022/07/15 08:27:58;;;;;;;10.95;6.13;;;;;;;30.65;33.81;101098.69;5019865;28;20081;-87
2022/07/15 08:30:24;;;;;;;7.97;5.03;;;;;;;30.80;33.18;101094.06;5017034;28;20033;-88
2022/07/15 08:32:49;;;;;;;6.22;4.80;;;;;;;30.82;32.96;101090.19;5000905;28;20437;-85
2022/07/15 08:35:15;;;;;;;6.32;4.70;;;;;;;30.82;33.43;101097.38;5023147;28;20048;-81
2022/07/15 08:37:40;;;;;;;7.53;4.63;;;;;;;30.85;32.35;101099.63;5026085;28;20033;-79
2022/07/15 08:40:09;;;;;;;11.48;4.78;;;;;;;31.02;32.69;101094.81;5012483;28;20439;-81
2022/07/15 08:42:35;;;;;;;6.80;4.70;;;;;;;31.13;33.10;101089.72;5033538;28;20461;-86
2022/07/15 08:45:00;;;;;;;9.35;5.57;;;;;;;31.24;31.54;101095.56;5047853;28;20021;-82
2022/07/15 08:47:26;;;;;;;7.25;4.60;;;;;;;31.13;31.41;101078.22;5044759;28;20048;-79
2022/07/15 08:49:57;;;;;;;9.65;4.50;;;;;;;31.11;31.49;101057.03;5029277;28;20064;-80
2022/07/15 08:52:23;;;;;;;;;;;;;;;31.44;31.34;101098.31;5049217;28;20070;-82
2022/07/15 08:54:49;;;;;;;9.10;4.93;;;;;;;31.43;31.74;101086.78;5056635;28;19913;-83
2022/07/15 08:57:14;;;;;;;5.25;4.35;;;;;;;31.63;31.12;101095.69;5027246;28;20666;-83
2022/07/15 08:59:42;;;;;;;8.68;4.30;;;;;;;31.77;30.31;101077.03;5037199;28;20040;-84
2022/07/15 09:02:07;;;;;;;7.32;4.30;;;;;;;31.98;30.14;101076.88;5050123;28;20048;-87
2022/07/15 09:04:33;;;;;;;8.55;4.13;;;;;;;32.25;30.21;101081.19;5032699;28;20128;-85
2022/07/15 09:07:02;;;;;;;6.55;4.70;;;;;;;32.21;28.82;101058.53;5015985;28;20029;-86
2022/07/15 09:09:32;;;;;;;12.10;5.25;;;;;;;32.34;28.90;101065.75;5030699;28;20034;-87
2022/07/15 09:12:06;;;;;;;8.05;4.10;;;;;;;32.40;28.58;101075.66;5013297;28;20449;-85
2022/07/15 09:14:32;;;;;;;8.55;4.03;;;;;;;32.50;28.63;101051.13;5031382;28;20065;-89
2022/07/15 09:17:05;;;;;;;7.97;4.32;;;;;;;32.79;28.26;101076.59;5032080;28;20117;-87
2022/07/15 09:20:01;;;;;;;6.75;3.95;;;;;;;32.98;26.84;101081.13;5032556;28;20055;-86
2022/07/15 09:22:28;;;;;;;6.43;4.43;;;;;;;33.02;27.19;101076.97;5017987;28;20034;-82
2022/07/15 09:25:08;;;;;;;6.85;3.97;;;;;;;33.32;26.99;101074.56;5028321;28;20068;-83
2022/07/15 09:27:41;;;;;;;7.13;4.20;;;;;;;33.40;27.30;101083.44;5011022;28;20427;-87
2022/07/15 09:38:26;;;;;;;9.73;4.30;;;;;;;33.54;26.19;101075.13;5031402;28;20040;-87
2022/07/15 09:40:52;;;;;;;5.55;3.75;;;;;;;33.67;25.75;101068.84;5037461;28;20033;-90
2022/07/15 09:43:17;;;;;;;6.50;4.50;;;;;;;33.78;25.52;101076.19;5032365;28;20018;-85
2022/07/15 09:45:43;;;;;;;7.20;4.93;;;;;;;33.83;25.54;101062.97;5031321;28;20559;-87
2022/07/15 09:48:10;;;;;;;6.93;4.50;;;;;;;33.89;25.35;101070.16;5013160;28;20060;-84
2022/07/15 09:50:36;;;;;;;3.88;3.40;;;;;;;33.95;25.36;101049.69;5031043;28;20061;-85
2022/07/15 09:53:09;;;;;;;8.35;3.88;;;;;;;34.12;25.07;101044.56;5047172;28;20082;-87
2022/07/15 09:55:36;;;;;;;5.65;3.60;;;;;;;34.22;25.12;101040.38;5046156;28;20040;-87
2022/07/15 09:58:04;;;;;;;7.65;3.75;;;;;;;34.18;25.48;101030.28;5014077;28;20033;-86
2022/07/15 10:00:30;;;;;;;10.70;4.45;;;;;;;34.43;25.43;101041.84;5031502;28;20037;-94
2022/07/15 10:02:55;;;;;;;7.57;3.50;;;;;;;34.71;24.78;101027.91;5032006;28;20079;-91
2022/07/15 10:05:21;;;;;;;4.90;3.60;;;;;;;34.76;24.03;101046.03;5031477;28;20441;-92
2022/07/15 10:07:47;;;;;;;5.05;3.58;;;;;;;34.69;23.09;101038.03;5015198;28;20053;-95
2022/07/15 10:10:12;;;;;;;4.70;3.45;;;;;;;34.46;23.58;101019.09;5013293;28;20133;-83
2022/07/15 10:13:23;;;;;;;4.55;3.95;;;;;;;34.46;24.00;101041.41;5014419;28;20440;-85
2022/07/15 10:16:04;;;;;;;4.82;4.28;;;;;;;34.72;24.57;101018.00;5026227;28;20837;-88
2022/07/15 10:18:42;;;;;;;8.80;3.67;;;;;;;35.12;23.51;101033.66;5032304;28;20025;-87
2022/07/15 10:21:19;;;;;;;4.72;3.78;;;;;;;35.36;23.64;101032.69;5030977;28;20079;-82
2022/07/15 10:24:14;;;;;;;6.10;3.97;;;;;;;35.30;23.78;101004.00;5031144;28;20104;-83
2022/07/15 10:26:39;;;;;;;5.43;3.53;;;;;;;35.38;22.90;100995.63;5016554;28;20141;-83
2022/07/15 10:29:06;;;;;;;6.13;3.28;;;;;;;35.44;22.95;100993.91;5031835;28;20542;-83
2022/07/15 10:31:32;;;;;;;6.97;3.60;;;;;;;35.71;22.93;101015.84;5030161;28;20529;-85
2022/07/15 10:34:06;;;;;;;6.95;3.45;;;;;;;35.82;22.98;100996.19;5030389;28;20033;-89
2022/07/15 10:36:47;;;;;;;4.75;3.50;;;;;;;36.06;22.26;101008.63;5032314;28;20553;-92
2022/07/15 10:39:13;;;;;;;6.47;3.60;;;;;;;36.14;22.28;101000.22;5047534;28;20075;-91
2022/07/15 10:41:54;;;;;;;5.22;3.20;;;;;;;36.16;21.55;100998.09;5029600;28;20022;-85
2022/07/15 10:44:20;;;;;;;6.17;3.20;;;;;;;35.99;21.89;100964.88;5031046;28;20124;-85
2022/07/15 10:46:45;;;;;;;5.22;3.08;;;;;;;36.11;21.19;100995.31;5028463;28;21141;-89
2022/07/15 10:49:11;;;;;;;3.45;3.15;;;;;;;36.22;20.76;100990.16;5012293;28;20099;-92
2022/07/15 10:51:36;;;;;;;4.70;3.10;;;;;;;36.19;21.20;100986.88;5031227;28;20021;-91
2022/07/15 10:54:02;;;;;;;8.43;3.05;;;;;;;36.28;21.90;100987.31;5046432;28;20410;-90
2022/07/15 10:56:30;;;;;;;7.53;3.40;;;;;;;36.55;21.19;100995.72;5047887;28;20061;-92
2022/07/15 10:59:21;;;;;;;4.07;3.45;;;;;;;36.68;20.38;100984.72;5046436;28;20476;-92
2022/07/15 11:02:11;;;;;;;4.95;2.80;;;;;;;36.73;19.52;100990.19;5030376;28;20029;-84
2022/07/15 11:04:36;;;;;;;6.65;2.97;;;;;;;36.43;19.73;100970.69;5046744;28;20029;-83
2022/07/15 11:07:09;;;;;;;3.58;3.00;;;;;;;36.59;19.28;100979.94;5030757;28;20509;-84
2022/07/15 11:10:02;;;;;;;5.72;2.90;;;;;;;36.29;19.73;100980.06;5030974;28;20140;-87
2022/07/15 11:12:30;;;;;;;4.03;2.90;;;;;;;36.38;20.21;100981.34;5031489;28;20049;-91
2022/07/15 11:14:56;;;;;;;4.22;2.83;;;;;;;36.38;20.42;100966.03;5031564;28;20025;-89
2022/07/15 11:17:40;;;;;;;6.90;3.08;;;;;;;36.68;20.17;100968.53;5032833;28;20116;-92
2022/07/15 11:20:10;;;;;;;3.78;3.05;;;;;;;36.84;19.74;100975.06;5047465;28;20490;-87
2022/07/15 11:22:42;;;;;;;3.90;3.00;;;;;;;36.88;20.27;100957.34;5029530;28;20026;-91
2022/07/15 11:25:32;;;;;;;5.10;3.17;;;;;;;37.08;19.92;100967.69;5029141;28;20025;-87
2022/07/15 11:28:00;;;;;;;4.57;3.00;;;;;;;37.15;19.43;100965.66;5030111;28;20032;-85
2022/07/15 11:30:27;;;;;;;6.90;3.33;;;;;;;37.11;20.09;100956.41;5029167;28;20383;-82
2022/07/15 11:32:57;;;;;;;5.68;3.30;;;;;;;37.19;19.84;100958.72;5034856;28;20029;-79
2022/07/15 11:35:22;;;;;;;4.25;3.28;;;;;;;37.14;19.89;100947.00;5048394;28;20029;-80
2022/07/15 11:37:48;;;;;;;5.25;3.10;;;;;;;36.84;19.68;100953.50;5044320;28;20116;-79
2022/07/15 11:44:29;;;;;;;3.58;3.05;;;;;;;37.10;20.37;100954.78;5048380;28;20033;-81
2022/07/15 11:45:46;;;;;;;5.32;2.97;;;;;;;37.05;20.28;100946.59;5028953;28;20516;-79
2022/07/15 11:48:12;;;;;;;3.97;2.95;;;;;;;37.21;19.43;100940.41;5029458;28;20041;-82
2022/07/15 11:50:37;;;;;;;4.28;2.90;;;;;;;37.50;19.52;100938.50;5029012;28;20032;-83
2022/07/15 11:53:13;;;;;;;4.63;2.90;;;;;;;37.67;19.87;100932.28;5029265;28;20033;-85
2022/07/15 11:55:56;;;;;;;5.35;3.03;;;;;;;37.76;19.01;100928.94;5029012;28;20030;-85
2022/07/15 11:58:44;;;;;;;3.67;2.90;;;;;;;37.81;19.00;100939.00;5030121;28;20509;-86
2022/07/15 12:01:11;;;;;;;5.05;3.05;;;;;;;37.83;18.93;100929.56;5044076;28;20076;-84
2022/07/15 12:03:42;;;;;;;4.47;3.42;;;;;;;37.64;18.62;100911.97;5043554;28;20355;-84
2022/07/15 12:06:10;;;;;;;4.28;2.85;;;;;;;37.37;19.56;100905.63;5010989;28;20033;-85
2022/07/15 12:08:37;;;;;;;6.55;2.92;;;;;;;37.51;19.94;100923.13;5028266;28;20025;-84
2022/07/15 12:11:07;;;;;;;4.35;3.10;;;;;;;37.61;19.14;100928.66;5028353;28;20030;-86
2022/07/15 12:13:54;;;;;;;4.53;3.10;;;;;;;37.62;19.48;100916.81;5028403;28;20552;-83
2022/07/15 12:16:27;;;;;;;4.05;3.30;;;;;;;37.72;19.06;100919.66;5043861;28;20320;-83
2022/07/15 12:18:54;;;;;;;4.68;2.75;;;;;;;37.80;18.65;100913.88;5028228;28;20033;-82
2022/07/15 12:21:19;;;;;;;4.60;2.92;;;;;;;37.93;19.04;100919.97;5045018;28;20033;-89
2022/07/15 12:24:07;;;;;;;3.47;2.83;;;;;;;37.81;18.64;100923.59;5028334;28;20034;-84
2022/07/15 12:26:44;;;;;;;3.78;3.20;;;;;;;37.68;19.24;100909.63;5044171;28;20040;-89
2022/07/15 12:29:10;;;;;;;4.82;3.05;;;;;;;37.51;18.08;100913.13;5023871;28;20418;-87
2022/07/15 12:31:37;;;;;;;3.25;2.80;;;;;;;37.45;19.14;100902.50;5027801;28;20487;-93
2022/07/15 12:34:03;;;;;;;3.63;2.88;;;;;;;37.37;18.92;100897.53;5011263;28;20034;-89
2022/07/15 12:36:30;;;;;;;3.97;3.13;;;;;;;37.31;19.33;100920.91;5030813;28;20087;-85
2022/07/15 12:39:02;;;;;;;4.38;2.92;;;;;;;37.36;19.27;100917.47;5032506;28;20100;-83
2022/07/15 12:41:28;;;;;;;2.90;2.60;;;;;;;37.16;18.72;100905.25;5032963;28;20025;-85
2022/07/15 12:43:56;;;;;;;5.20;2.72;;;;;;;37.20;18.71;100911.81;5014913;28;20465;-90
2022/07/15 12:46:53;;;;;;;4.05;3.03;;;;;;;37.23;18.97;100905.91;5015808;28;20052;-82
2022/07/15 12:49:40;;;;;;;3.35;2.80;;;;;;;37.11;18.91;100907.06;5033397;28;20029;-83
2022/07/15 12:52:21;;;;;;;3.42;3.00;;;;;;;37.09;19.10;100901.91;5033487;28;20464;-82
2022/07/15 12:54:47;;;;;;;3.80;2.70;;;;;;;37.22;19.37;100906.16;5049372;28;20030;-82
2022/07/15 12:57:41;;;;;;;5.70;2.83;;;;;;;37.08;18.88;100897.59;5015981;28;20141;-82
2022/07/15 13:00:22;;;;;;;3.67;2.80;;;;;;;37.14;19.43;100896.59;5031695;28;20105;-84
2022/07/15 13:03:17;;;;;;;3.70;3.07;;;;;;;37.17;18.87;100898.81;5045879;28;20029;-93
2022/07/15 13:05:44;;;;;;;5.38;3.05;;;;;;;36.95;19.57;100871.72;5028390;28;20044;-90
2022/07/15 13:08:14;;;;;;;3.08;2.75;;;;;;;37.12;19.30;100890.63;5030211;28;20021;-83
2022/07/15 13:10:42;;;;;;;3.35;2.88;;;;;;;37.10;19.29;100890.06;5014624;28;20032;-84
2022/07/15 13:13:08;;;;;;;6.07;4.60;;;;;;;36.96;19.42;100880.63;5032017;28;20045;-83
2022/07/15 13:15:33;;;;;;;14.93;11.68;;;;;;;36.81;20.08;100880.34;5030250;28;20110;-81
2022/07/15 13:17:59;;;;;;;4.15;3.20;;;;;;;36.68;20.49;100876.06;5008574;28;20487;-79
2022/07/15 13:20:25;;;;;;;4.20;2.72;;;;;;;36.65;19.89;100887.31;5026933;28;20030;-80
2022/07/15 13:22:51;;;;;;;3.50;2.80;;;;;;;36.49;20.24;100883.53;5044476;28;20132;-87
2022/07/15 13:25:17;;;;;;;4.53;2.90;;;;;;;36.46;20.25;100897.47;5044180;28;20442;-83
2022/07/15 13:27:42;;;;;;;4.88;3.10;;;;;;;36.33;21.03;100884.25;5044068;28;20025;-86
2022/07/15 13:30:08;;;;;;;3.50;2.88;;;;;;;36.32;20.88;100891.50;5028606;28;20084;-83
2022/07/15 13:32:34;;;;;;;4.00;2.78;;;;;;;36.18;21.46;100855.94;5029280;28;20029;-90
2022/07/15 13:34:59;;;;;;;5.65;2.67;;;;;;;36.15;20.53;100877.97;5031755;28;20494;-88
2022/07/15 13:37:25;;;;;;;3.40;2.72;;;;;;;36.12;20.66;100897.31;5029914;28;20580;-87
2022/07/15 13:39:51;;;;;;;5.03;2.90;;;;;;;35.87;20.44;100888.66;5012175;28;20033;-89
2022/07/15 13:42:17;;;;;;;5.75;2.80;;;;;;;35.80;20.94;100879.88;5013468;28;20071;-89
2022/07/15 13:44:42;;;;;;;8.45;4.30;;;;;;;35.83;20.75;100890.16;5029864;28;20029;-83
2022/07/15 13:47:08;;;;;;;3.80;2.78;;;;;;;35.76;20.79;100876.81;5046772;28;20024;-89
2022/07/15 13:52:18;;;;;;;3.15;2.50;;;;;;;35.59;19.83;100865.94;5031420;28;20541;-83
2022/07/15 13:54:44;;;;;;;8.15;5.07;;;;;;;35.54;20.56;100863.16;5031198;28;20068;-83
2022/07/15 13:57:09;;;;;;;6.25;3.63;;;;;;;35.58;20.66;100872.38;5031457;28;20079;-84
2022/07/15 13:59:35;;;;;;;5.70;2.80;;;;;;;35.58;20.86;100887.69;5047560;28;20033;-84
2022/07/15 14:02:03;;;;;;;6.15;3.20;;;;;;;35.33;20.92;100855.63;5020803;28;20171;-84
2022/07/15 14:04:28;;;;;;;6.13;3.35;;;;;;;35.54;20.60;100875.78;5015117;28;20117;-88
2022/07/15 14:06:54;;;;;;;4.13;2.67;;;;;;;35.31;20.58;100838.91;5044203;28;20064;-89
2022/07/15 14:09:19;;;;;;;5.43;3.28;;;;;;;35.38;20.70;100841.47;5051353;28;20044;-86
